sensor_id;sensor_type;location;lat;lon;timestamp;P1;durP1;ratioP1;P2;durP2;ratioP2
67602;SDS011;54417;47.454;18.918;2023-05-10T00:03:29;3.25;;;2.60;;
67602;SDS011;54417;47.454;18.918;2023-05-10T00:08:39;2.30;;;2.10;;
67602;SDS011;54417;47.454;18.918;2023-05-10T00:13:48;8.80;;;2.40;;
67602;SDS011;54417;47.454;18.918;2023-05-10T00:18:57;5.32;;;2.80;;
67602;SDS011;54417;47.454;18.918;2023-05-10T00:24:02;6.28;;;3.28;;
67602;SDS011;54417;47.454;18.918;2023-05-10T00:29:11;3.47;;;3.17;;
67602;SDS011;54417;47.454;18.918;2023-05-10T00:34:15;3.47;;;3.17;;
67602;SDS011;54417;47.454;18.918;2023-05-10T00:39:25;5.75;;;2.97;;
67602;SDS011;54417;47.454;18.918;2023-05-10T00:44:30;5.18;;;3.55;;
67602;SDS011;54417;47.454;18.918;2023-05-10T00:49:35;3.53;;;3.08;;
67602;SDS011;54417;47.454;18.918;2023-05-10T00:54:41;6.00;;;3.45;;
67602;SDS011;54417;47.454;18.918;2023-05-10T00:59:45;3.97;;;3.40;;
67602;SDS011;54417;47.454;18.918;2023-05-10T01:04:49;5.80;;;3.40;;
67602;SDS011;54417;47.454;18.918;2023-05-10T01:10:00;4.93;;;3.90;;
67602;SDS011;54417;47.454;18.918;2023-05-10T01:15:09;6.33;;;4.30;;
67602;SDS011;54417;47.454;18.918;2023-05-10T01:20:14;4.95;;;4.35;;
67602;SDS011;54417;47.454;18.918;2023-05-10T01:25:27;4.13;;;3.67;;
67602;SDS011;54417;47.454;18.918;2023-05-10T01:31:00;5.53;;;3.75;;
67602;SDS011;54417;47.454;18.918;2023-05-10T01:36:15;7.43;;;3.70;;
67602;SDS011;54417;47.454;18.918;2023-05-10T01:41:36;9.15;;;4.38;;
67602;SDS011;54417;47.454;18.918;2023-05-10T01:46:49;4.43;;;3.67;;
67602;SDS011;54417;47.454;18.918;2023-05-10T01:51:59;5.43;;;3.85;;
67602;SDS011;54417;47.454;18.918;2023-05-10T01:57:12;7.25;;;3.92;;
67602;SDS011;54417;47.454;18.918;2023-05-10T02:02:18;7.78;;;4.40;;
67602;SDS011;54417;47.454;18.918;2023-05-10T02:07:30;6.80;;;4.53;;
67602;SDS011;54417;47.454;18.918;2023-05-10T02:12:36;6.43;;;4.05;;
67602;SDS011;54417;47.454;18.918;2023-05-10T02:17:44;4.32;;;3.58;;
67602;SDS011;54417;47.454;18.918;2023-05-10T02:22:53;6.75;;;3.97;;
67602;SDS011;54417;47.454;18.918;2023-05-10T02:27:59;8.02;;;3.50;;
67602;SDS011;54417;47.454;18.918;2023-05-10T02:33:11;4.53;;;3.60;;
67602;SDS011;54417;47.454;18.918;2023-05-10T02:38:18;5.38;;;3.40;;
67602;SDS011;54417;47.454;18.918;2023-05-10T02:43:23;8.07;;;3.53;;
67602;SDS011;54417;47.454;18.918;2023-05-10T02:48:27;4.85;;;4.00;;
67602;SDS011;54417;47.454;18.918;2023-05-10T02:53:34;6.35;;;3.80;;
67602;SDS011;54417;47.454;18.918;2023-05-10T02:58:39;4.45;;;3.72;;
67602;SDS011;54417;47.454;18.918;2023-05-10T03:03:43;5.03;;;4.00;;
67602;SDS011;54417;47.454;18.918;2023-05-10T03:08:48;6.90;;;3.70;;
67602;SDS011;54417;47.454;18.918;2023-05-10T03:13:56;5.25;;;3.90;;
67602;SDS011;54417;47.454;18.918;2023-05-10T03:19:15;4.55;;;3.83;;
67602;SDS011;54417;47.454;18.918;2023-05-10T03:24:25;4.75;;;3.75;;
67602;SDS011;54417;47.454;18.918;2023-05-10T03:29:34;3.85;;;3.35;;
67602;SDS011;54417;47.454;18.918;2023-05-10T03:34:44;3.97;;;3.20;;
67602;SDS011;54417;47.454;18.918;2023-05-10T03:39:55;4.32;;;3.60;;
67602;SDS011;54417;47.454;18.918;2023-05-10T03:44:59;4.85;;;4.18;;
67602;SDS011;54417;47.454;18.918;2023-05-10T03:50:08;3.90;;;3.50;;
67602;SDS011;54417;47.454;18.918;2023-05-10T03:55:13;4.90;;;3.90;;
67602;SDS011;54417;47.454;18.918;2023-05-10T04:00:18;7.35;;;3.70;;
67602;SDS011;54417;47.454;18.918;2023-05-10T04:05:31;7.25;;;4.22;;
67602;SDS011;54417;47.454;18.918;2023-05-10T04:10:42;6.10;;;4.05;;
67602;SDS011;54417;47.454;18.918;2023-05-10T04:15:45;10.32;;;4.07;;
67602;SDS011;54417;47.454;18.918;2023-05-10T04:20:54;5.28;;;4.10;;
67602;SDS011;54417;47.454;18.918;2023-05-10T04:26:04;7.82;;;4.35;;
67602;SDS011;54417;47.454;18.918;2023-05-10T04:31:09;5.97;;;4.15;;
67602;SDS011;54417;47.454;18.918;2023-05-10T04:36:18;10.50;;;4.43;;
67602;SDS011;54417;47.454;18.918;2023-05-10T04:41:28;5.88;;;4.18;;
67602;SDS011;54417;47.454;18.918;2023-05-10T04:46:37;7.88;;;4.05;;
67602;SDS011;54417;47.454;18.918;2023-05-10T04:51:46;5.90;;;4.65;;
67602;SDS011;54417;47.454;18.918;2023-05-10T04:56:57;8.98;;;4.20;;
67602;SDS011;54417;47.454;18.918;2023-05-10T05:02:05;6.65;;;4.03;;
67602;SDS011;54417;47.454;18.918;2023-05-10T05:07:09;4.65;;;4.00;;
67602;SDS011;54417;47.454;18.918;2023-05-10T05:12:14;7.22;;;3.90;;
67602;SDS011;54417;47.454;18.918;2023-05-10T05:17:23;9.52;;;4.20;;
67602;SDS011;54417;47.454;18.918;2023-05-10T05:22:32;5.45;;;4.45;;
67602;SDS011;54417;47.454;18.918;2023-05-10T05:27:43;4.45;;;4.05;;
67602;SDS011;54417;47.454;18.918;2023-05-10T05:32:46;6.57;;;4.72;;
67602;SDS011;54417;47.454;18.918;2023-05-10T05:37:50;3.88;;;3.53;;
67602;SDS011;54417;47.454;18.918;2023-05-10T05:43:00;7.55;;;3.92;;
67602;SDS011;54417;47.454;18.918;2023-05-10T05:48:09;4.57;;;3.47;;
67602;SDS011;54417;47.454;18.918;2023-05-10T05:53:18;12.18;;;4.47;;
67602;SDS011;54417;47.454;18.918;2023-05-10T05:58:23;5.00;;;3.00;;
67602;SDS011;54417;47.454;18.918;2023-05-10T06:08:41;6.57;;;3.30;;
67602;SDS011;54417;47.454;18.918;2023-05-10T06:13:51;8.50;;;3.20;;
67602;SDS011;54417;47.454;18.918;2023-05-10T06:19:00;5.83;;;3.83;;
67602;SDS011;54417;47.454;18.918;2023-05-10T06:24:10;7.43;;;3.38;;
67602;SDS011;54417;47.454;18.918;2023-05-10T06:29:20;6.03;;;3.67;;
67602;SDS011;54417;47.454;18.918;2023-05-10T06:34:28;5.87;;;3.50;;
67602;SDS011;54417;47.454;18.918;2023-05-10T06:39:37;4.15;;;2.90;;
67602;SDS011;54417;47.454;18.918;2023-05-10T06:44:48;8.25;;;3.80;;
67602;SDS011;54417;47.454;18.918;2023-05-10T06:49:56;4.63;;;3.17;;
67602;SDS011;54417;47.454;18.918;2023-05-10T06:55:05;4.85;;;3.47;;
67602;SDS011;54417;47.454;18.918;2023-05-10T07:00:12;4.80;;;3.55;;
67602;SDS011;54417;47.454;18.918;2023-05-10T07:05:17;6.55;;;2.90;;
67602;SDS011;54417;47.454;18.918;2023-05-10T07:10:27;5.35;;;3.63;;
67602;SDS011;54417;47.454;18.918;2023-05-10T07:15:38;3.65;;;3.30;;
67602;SDS011;54417;47.454;18.918;2023-05-10T07:20:47;3.85;;;2.90;;
67602;SDS011;54417;47.454;18.918;2023-05-10T07:25:51;5.35;;;3.10;;
67602;SDS011;54417;47.454;18.918;2023-05-10T07:30:56;5.80;;;3.30;;
67602;SDS011;54417;47.454;18.918;2023-05-10T07:36:05;9.35;;;4.10;;
67602;SDS011;54417;47.454;18.918;2023-05-10T07:41:14;6.70;;;2.97;;
67602;SDS011;54417;47.454;18.918;2023-05-10T07:46:20;5.72;;;3.15;;
67602;SDS011;54417;47.454;18.918;2023-05-10T07:51:23;3.92;;;2.42;;
67602;SDS011;54417;47.454;18.918;2023-05-10T07:56:28;4.45;;;2.38;;
67602;SDS011;54417;47.454;18.918;2023-05-10T08:01:40;6.65;;;2.58;;
67602;SDS011;54417;47.454;18.918;2023-05-10T08:06:49;2.63;;;2.42;;
67602;SDS011;54417;47.454;18.918;2023-05-10T08:11:57;2.70;;;2.30;;
67602;SDS011;54417;47.454;18.918;2023-05-10T08:17:08;8.07;;;2.65;;
67602;SDS011;54417;47.454;18.918;2023-05-10T08:22:12;3.63;;;2.63;;
67602;SDS011;54417;47.454;18.918;2023-05-10T08:27:20;6.53;;;2.78;;
67602;SDS011;54417;47.454;18.918;2023-05-10T08:32:26;4.30;;;2.05;;
67602;SDS011;54417;47.454;18.918;2023-05-10T08:37:34;3.95;;;2.80;;
67602;SDS011;54417;47.454;18.918;2023-05-10T08:42:39;2.28;;;2.05;;
67602;SDS011;54417;47.454;18.918;2023-05-10T08:47:47;3.92;;;2.60;;
67602;SDS011;54417;47.454;18.918;2023-05-10T08:52:59;2.70;;;2.28;;
67602;SDS011;54417;47.454;18.918;2023-05-10T08:58:07;2.67;;;2.47;;
67602;SDS011;54417;47.454;18.918;2023-05-10T09:03:17;6.05;;;2.50;;
67602;SDS011;54417;47.454;18.918;2023-05-10T09:08:21;5.53;;;2.78;;
67602;SDS011;54417;47.454;18.918;2023-05-10T09:13:32;2.55;;;2.30;;
67602;SDS011;54417;47.454;18.918;2023-05-10T09:18:44;2.25;;;2.03;;
67602;SDS011;54417;47.454;18.918;2023-05-10T09:23:48;4.22;;;2.53;;
67602;SDS011;54417;47.454;18.918;2023-05-10T09:28:59;3.75;;;2.58;;
67602;SDS011;54417;47.454;18.918;2023-05-10T09:34:11;4.25;;;2.63;;
67602;SDS011;54417;47.454;18.918;2023-05-10T09:39:19;2.28;;;2.08;;
67602;SDS011;54417;47.454;18.918;2023-05-10T09:44:28;3.25;;;2.47;;
67602;SDS011;54417;47.454;18.918;2023-05-10T09:49:39;5.82;;;2.50;;
67602;SDS011;54417;47.454;18.918;2023-05-10T09:54:52;2.58;;;2.38;;
67602;SDS011;54417;47.454;18.918;2023-05-10T10:00:01;3.42;;;2.20;;
67602;SDS011;54417;47.454;18.918;2023-05-10T10:05:20;4.60;;;2.38;;
67602;SDS011;54417;47.454;18.918;2023-05-10T10:10:35;3.50;;;2.20;;
67602;SDS011;54417;47.454;18.918;2023-05-10T10:15:45;3.47;;;2.20;;
67602;SDS011;54417;47.454;18.918;2023-05-10T10:21:00;2.28;;;2.08;;
67602;SDS011;54417;47.454;18.918;2023-05-10T10:26:05;2.50;;;2.30;;
67602;SDS011;54417;47.454;18.918;2023-05-10T10:31:15;3.20;;;2.40;;
67602;SDS011;54417;47.454;18.918;2023-05-10T10:36:28;2.53;;;2.10;;
67602;SDS011;54417;47.454;18.918;2023-05-10T10:41:33;2.25;;;2.05;;
67602;SDS011;54417;47.454;18.918;2023-05-10T10:52:14;2.17;;;1.80;;
67602;SDS011;54417;47.454;18.918;2023-05-10T10:57:30;1.60;;;1.50;;
67602;SDS011;54417;47.454;18.918;2023-05-10T11:02:43;2.25;;;1.70;;
67602;SDS011;54417;47.454;18.918;2023-05-10T11:07:57;4.47;;;1.88;;
67602;SDS011;54417;47.454;18.918;2023-05-10T11:13:07;1.67;;;1.58;;
67602;SDS011;54417;47.454;18.918;2023-05-10T11:18:16;2.85;;;1.92;;
67602;SDS011;54417;47.454;18.918;2023-05-10T11:23:31;4.53;;;1.73;;
67602;SDS011;54417;47.454;18.918;2023-05-10T11:28:41;2.40;;;2.20;;
67602;SDS011;54417;47.454;18.918;2023-05-10T11:33:50;1.60;;;1.50;;
67602;SDS011;54417;47.454;18.918;2023-05-10T11:39:01;2.05;;;1.67;;
67602;SDS011;54417;47.454;18.918;2023-05-10T11:44:11;10.50;;;1.77;;
67602;SDS011;54417;47.454;18.918;2023-05-10T11:49:21;1.60;;;1.48;;
67602;SDS011;54417;47.454;18.918;2023-05-10T11:54:30;6.75;;;1.50;;
67602;SDS011;54417;47.454;18.918;2023-05-10T11:59:34;2.80;;;1.50;;
67602;SDS011;54417;47.454;18.918;2023-05-10T12:04:43;4.95;;;1.60;;
67602;SDS011;54417;47.454;18.918;2023-05-10T12:15:25;2.50;;;1.40;;
67602;SDS011;54417;47.454;18.918;2023-05-10T12:20:35;6.65;;;1.50;;
67602;SDS011;54417;47.454;18.918;2023-05-10T12:25:44;2.93;;;2.33;;
67602;SDS011;54417;47.454;18.918;2023-05-10T12:30:49;1.23;;;1.13;;
67602;SDS011;54417;47.454;18.918;2023-05-10T12:35:59;5.45;;;1.20;;
67602;SDS011;54417;47.454;18.918;2023-05-10T12:41:03;3.08;;;1.45;;
67602;SDS011;54417;47.454;18.918;2023-05-10T12:46:09;5.10;;;1.70;;
67602;SDS011;54417;47.454;18.918;2023-05-10T12:51:14;1.60;;;1.50;;
67602;SDS011;54417;47.454;18.918;2023-05-10T12:56:26;1.70;;;1.38;;
67602;SDS011;54417;47.454;18.918;2023-05-10T13:01:31;1.90;;;1.20;;
67602;SDS011;54417;47.454;18.918;2023-05-10T13:06:35;5.43;;;1.42;;
67602;SDS011;54417;47.454;18.918;2023-05-10T13:11:44;1.40;;;1.30;;
67602;SDS011;54417;47.454;18.918;2023-05-10T13:16:55;2.42;;;1.58;;
67602;SDS011;54417;47.454;18.918;2023-05-10T13:27:13;2.97;;;1.40;;
67602;SDS011;54417;47.454;18.918;2023-05-10T13:32:23;1.17;;;1.10;;
67602;SDS011;54417;47.454;18.918;2023-05-10T13:37:32;3.63;;;1.40;;
67602;SDS011;54417;47.454;18.918;2023-05-10T13:42:39;1.55;;;1.45;;
67602;SDS011;54417;47.454;18.918;2023-05-10T13:47:49;1.00;;;1.00;;
67602;SDS011;54417;47.454;18.918;2023-05-10T13:52:54;1.67;;;1.30;;
67602;SDS011;54417;47.454;18.918;2023-05-10T13:58:03;10.60;;;1.30;;
67602;SDS011;54417;47.454;18.918;2023-05-10T14:03:13;2.90;;;1.23;;
67602;SDS011;54417;47.454;18.918;2023-05-10T14:08:22;4.38;;;1.33;;
67602;SDS011;54417;47.454;18.918;2023-05-10T14:13:26;1.55;;;1.10;;
67602;SDS011;54417;47.454;18.918;2023-05-10T14:18:36;2.50;;;1.42;;
67602;SDS011;54417;47.454;18.918;2023-05-10T14:23:45;3.45;;;1.65;;
67602;SDS011;54417;47.454;18.918;2023-05-10T14:28:54;3.67;;;2.03;;
67602;SDS011;54417;47.454;18.918;2023-05-10T14:33:59;1.40;;;1.30;;
67602;SDS011;54417;47.454;18.918;2023-05-10T14:44:17;7.78;;;1.40;;
67602;SDS011;54417;47.454;18.918;2023-05-10T14:49:27;2.17;;;1.38;;
67602;SDS011;54417;47.454;18.918;2023-05-10T14:54:31;2.80;;;1.30;;
67602;SDS011;54417;47.454;18.918;2023-05-10T14:59:40;2.00;;;1.20;;
67602;SDS011;54417;47.454;18.918;2023-05-10T15:04:46;2.88;;;1.60;;
67602;SDS011;54417;47.454;18.918;2023-05-10T15:09:55;2.42;;;1.00;;
67602;SDS011;54417;47.454;18.918;2023-05-10T15:15:04;2.35;;;1.23;;
67602;SDS011;54417;47.454;18.918;2023-05-10T15:20:15;2.92;;;0.90;;
67602;SDS011;54417;47.454;18.918;2023-05-10T15:25:24;3.25;;;1.25;;
67602;SDS011;54417;47.454;18.918;2023-05-10T15:30:33;7.03;;;1.00;;
67602;SDS011;54417;47.454;18.918;2023-05-10T15:35:43;4.47;;;1.02;;
67602;SDS011;54417;47.454;18.918;2023-05-10T15:45:58;2.95;;;1.13;;
67602;SDS011;54417;47.454;18.918;2023-05-10T15:51:03;1.05;;;0.88;;
67602;SDS011;54417;47.454;18.918;2023-05-10T15:56:07;3.42;;;1.38;;
67602;SDS011;54417;47.454;18.918;2023-05-10T16:01:11;1.25;;;1.05;;
67602;SDS011;54417;47.454;18.918;2023-05-10T16:06:16;11.05;;;2.35;;
67602;SDS011;54417;47.454;18.918;2023-05-10T16:11:25;2.65;;;1.10;;
67602;SDS011;54417;47.454;18.918;2023-05-10T16:16:34;5.28;;;1.42;;
67602;SDS011;54417;47.454;18.918;2023-05-10T16:21:39;1.38;;;1.27;;
67602;SDS011;54417;47.454;18.918;2023-05-10T16:26:48;1.48;;;1.20;;
67602;SDS011;54417;47.454;18.918;2023-05-10T16:31:57;1.27;;;1.17;;
67602;SDS011;54417;47.454;18.918;2023-05-10T16:37:07;3.20;;;0.90;;
67602;SDS011;54417;47.454;18.918;2023-05-10T16:42:17;2.92;;;1.27;;
67602;SDS011;54417;47.454;18.918;2023-05-10T16:47:21;1.15;;;1.05;;
67602;SDS011;54417;47.454;18.918;2023-05-10T16:52:34;1.67;;;1.17;;
67602;SDS011;54417;47.454;18.918;2023-05-10T16:57:38;9.60;;;1.38;;
67602;SDS011;54417;47.454;18.918;2023-05-10T17:02:42;6.20;;;1.60;;
67602;SDS011;54417;47.454;18.918;2023-05-10T17:07:47;1.90;;;1.40;;
67602;SDS011;54417;47.454;18.918;2023-05-10T17:12:56;3.13;;;1.30;;
67602;SDS011;54417;47.454;18.918;2023-05-10T17:18:05;2.80;;;1.98;;
67602;SDS011;54417;47.454;18.918;2023-05-10T17:23:15;2.28;;;1.45;;
67602;SDS011;54417;47.454;18.918;2023-05-10T17:28:24;1.20;;;1.10;;
67602;SDS011;54417;47.454;18.918;2023-05-10T17:33:33;2.42;;;1.70;;
67602;SDS011;54417;47.454;18.918;2023-05-10T17:38:43;17.42;;;2.15;;
67602;SDS011;54417;47.454;18.918;2023-05-10T17:43:52;2.53;;;1.60;;
67602;SDS011;54417;47.454;18.918;2023-05-10T17:49:01;1.88;;;1.58;;
67602;SDS011;54417;47.454;18.918;2023-05-10T17:54:12;2.78;;;1.40;;
67602;SDS011;54417;47.454;18.918;2023-05-10T17:59:20;1.95;;;1.85;;
67602;SDS011;54417;47.454;18.918;2023-05-10T18:04:29;1.95;;;1.65;;
67602;SDS011;54417;47.454;18.918;2023-05-10T18:09:40;3.45;;;2.00;;
67602;SDS011;54417;47.454;18.918;2023-05-10T18:14:44;6.25;;;1.88;;
67602;SDS011;54417;47.454;18.918;2023-05-10T18:19:47;2.50;;;1.77;;
67602;SDS011;54417;47.454;18.918;2023-05-10T18:24:53;4.82;;;2.00;;
67602;SDS011;54417;47.454;18.918;2023-05-10T18:29:56;2.55;;;1.77;;
67602;SDS011;54417;47.454;18.918;2023-05-10T18:35:06;3.28;;;2.03;;
67602;SDS011;54417;47.454;18.918;2023-05-10T18:40:16;6.93;;;2.05;;
67602;SDS011;54417;47.454;18.918;2023-05-10T18:45:25;2.90;;;1.75;;
67602;SDS011;54417;47.454;18.918;2023-05-10T18:50:37;1.80;;;1.65;;
67602;SDS011;54417;47.454;18.918;2023-05-10T18:55:55;2.00;;;1.48;;
67602;SDS011;54417;47.454;18.918;2023-05-10T19:01:02;3.92;;;1.70;;
67602;SDS011;54417;47.454;18.918;2023-05-10T19:06:12;2.20;;;1.70;;
67602;SDS011;54417;47.454;18.918;2023-05-10T19:11:18;2.85;;;2.00;;
67602;SDS011;54417;47.454;18.918;2023-05-10T19:16:22;4.72;;;2.08;;
67602;SDS011;54417;47.454;18.918;2023-05-10T19:21:30;2.58;;;1.92;;
67602;SDS011;54417;47.454;18.918;2023-05-10T19:26:35;3.38;;;2.25;;
67602;SDS011;54417;47.454;18.918;2023-05-10T19:31:39;3.42;;;2.22;;
67602;SDS011;54417;47.454;18.918;2023-05-10T19:36:44;1.95;;;1.75;;
67602;SDS011;54417;47.454;18.918;2023-05-10T19:41:55;2.67;;;1.75;;
67602;SDS011;54417;47.454;18.918;2023-05-10T19:46:59;6.13;;;2.22;;
67602;SDS011;54417;47.454;18.918;2023-05-10T19:52:05;2.70;;;1.95;;
67602;SDS011;54417;47.454;18.918;2023-05-10T19:57:20;2.75;;;1.90;;
67602;SDS011;54417;47.454;18.918;2023-05-10T20:02:29;7.17;;;2.00;;
67602;SDS011;54417;47.454;18.918;2023-05-10T20:07:34;3.10;;;2.00;;
67602;SDS011;54417;47.454;18.918;2023-05-10T20:12:46;2.78;;;2.20;;
67602;SDS011;54417;47.454;18.918;2023-05-10T20:17:57;4.32;;;2.30;;
67602;SDS011;54417;47.454;18.918;2023-05-10T20:23:06;3.22;;;1.92;;
67602;SDS011;54417;47.454;18.918;2023-05-10T20:28:11;6.15;;;2.50;;
67602;SDS011;54417;47.454;18.918;2023-05-10T20:33:15;4.00;;;2.15;;
67602;SDS011;54417;47.454;18.918;2023-05-10T20:38:20;3.33;;;1.80;;
67602;SDS011;54417;47.454;18.918;2023-05-10T20:43:28;3.72;;;1.90;;
67602;SDS011;54417;47.454;18.918;2023-05-10T20:48:36;2.83;;;2.33;;
67602;SDS011;54417;47.454;18.918;2023-05-10T20:53:41;6.10;;;1.92;;
67602;SDS011;54417;47.454;18.918;2023-05-10T20:58:51;4.00;;;1.70;;
67602;SDS011;54417;47.454;18.918;2023-05-10T21:03:55;5.47;;;1.90;;
67602;SDS011;54417;47.454;18.918;2023-05-10T21:08:59;6.90;;;2.17;;
67602;SDS011;54417;47.454;18.918;2023-05-10T21:14:09;7.07;;;1.75;;
67602;SDS011;54417;47.454;18.918;2023-05-10T21:19:13;2.35;;;1.75;;
67602;SDS011;54417;47.454;18.918;2023-05-10T21:24:18;1.90;;;1.70;;
67602;SDS011;54417;47.454;18.918;2023-05-10T21:29:28;2.47;;;1.90;;
67602;SDS011;54417;47.454;18.918;2023-05-10T21:34:37;2.45;;;1.55;;
67602;SDS011;54417;47.454;18.918;2023-05-10T21:39:41;2.38;;;1.88;;
67602;SDS011;54417;47.454;18.918;2023-05-10T21:44:46;2.05;;;1.73;;
67602;SDS011;54417;47.454;18.918;2023-05-10T21:49:50;4.95;;;1.73;;
67602;SDS011;54417;47.454;18.918;2023-05-10T21:54:54;11.25;;;2.63;;
67602;SDS011;54417;47.454;18.918;2023-05-10T22:00:08;1.98;;;1.73;;
67602;SDS011;54417;47.454;18.918;2023-05-10T22:05:13;3.55;;;1.38;;
67602;SDS011;54417;47.454;18.918;2023-05-10T22:10:17;1.40;;;1.30;;
67602;SDS011;54417;47.454;18.918;2023-05-10T22:15:27;3.05;;;1.63;;
67602;SDS011;54417;47.454;18.918;2023-05-10T22:20:43;6.63;;;2.22;;
67602;SDS011;54417;47.454;18.918;2023-05-10T22:25:52;5.30;;;1.58;;
67602;SDS011;54417;47.454;18.918;2023-05-10T22:31:02;3.45;;;1.73;;
67602;SDS011;54417;47.454;18.918;2023-05-10T22:36:11;1.80;;;1.70;;
67602;SDS011;54417;47.454;18.918;2023-05-10T22:41:21;2.42;;;1.80;;
67602;SDS011;54417;47.454;18.918;2023-05-10T22:46:31;2.33;;;1.80;;
67602;SDS011;54417;47.454;18.918;2023-05-10T22:51:35;6.65;;;2.03;;
67602;SDS011;54417;47.454;18.918;2023-05-10T22:56:44;3.05;;;1.83;;
67602;SDS011;54417;47.454;18.918;2023-05-10T23:01:54;5.20;;;2.05;;
67602;SDS011;54417;47.454;18.918;2023-05-10T23:07:03;3.65;;;1.65;;
67602;SDS011;54417;47.454;18.918;2023-05-10T23:12:16;3.63;;;2.15;;
67602;SDS011;54417;47.454;18.918;2023-05-10T23:17:27;2.85;;;1.90;;
67602;SDS011;54417;47.454;18.918;2023-05-10T23:22:30;5.90;;;1.85;;
67602;SDS011;54417;47.454;18.918;2023-05-10T23:27:39;3.47;;;1.90;;
67602;SDS011;54417;47.454;18.918;2023-05-10T23:32:49;4.03;;;2.20;;
67602;SDS011;54417;47.454;18.918;2023-05-10T23:37:58;8.37;;;2.60;;
67602;SDS011;54417;47.454;18.918;2023-05-10T23:43:01;4.13;;;2.20;;
67602;SDS011;54417;47.454;18.918;2023-05-10T23:48:12;6.22;;;2.33;;
67602;SDS011;54417;47.454;18.918;2023-05-10T23:53:20;4.85;;;2.25;;
67602;SDS011;54417;47.454;18.918;2023-05-10T23:58:29;2.55;;;2.10;;
